createdAt,value
2023-04-10T00:00:57.580Z,40.30
2023-04-10T00:03:28.228Z,47.10
2023-04-10T00:06:00.562Z,43.20
2023-04-10T00:08:30.382Z,41.10
2023-04-10T00:10:59.936Z,48.83
2023-04-10T00:13:29.736Z,47.90
2023-04-10T00:15:59.195Z,48.50
2023-04-10T00:18:28.877Z,43.37
2023-04-10T00:21:00.969Z,43.50
2023-04-10T00:23:32.022Z,43.73
2023-04-10T00:26:01.627Z,52.83
2023-04-10T00:28:31.145Z,73.30
2023-04-10T00:31:00.663Z,40.20
2023-04-10T00:33:30.137Z,44.57
2023-04-10T00:36:02.233Z,124.47
2023-04-10T00:38:31.743Z,52.30
2023-04-10T00:41:01.323Z,71.23
2023-04-10T00:43:30.876Z,44.67
2023-04-10T00:46:00.467Z,47.47
2023-04-10T00:48:30.081Z,47.90
2023-04-10T00:51:02.366Z,48.80
2023-04-10T00:53:32.410Z,48.27
2023-04-10T00:56:02.065Z,56.07
2023-04-10T00:58:31.570Z,48.20
2023-04-10T01:01:02.264Z,49.30
2023-04-10T01:03:32.100Z,55.43
2023-04-10T01:06:08.966Z,44.10
2023-04-10T01:08:44.178Z,49.27
2023-04-10T01:11:17.712Z,56.10
2023-04-10T01:13:54.566Z,47.97
2023-04-10T01:16:29.860Z,47.50
2023-04-10T01:19:02.916Z,43.33
2023-04-10T01:21:36.891Z,61.93
2023-04-10T01:24:24.851Z,57.23
2023-04-10T01:27:11.519Z,45.33
2023-04-10T01:29:46.203Z,48.07
2023-04-10T01:32:18.012Z,49.67
2023-04-10T01:34:48.751Z,46.83
2023-04-10T01:37:21.118Z,54.77
2023-04-10T01:39:54.041Z,53.13
2023-04-10T01:42:24.006Z,41.83
2023-04-10T01:44:56.799Z,53.40
2023-04-10T01:47:28.214Z,53.10
2023-04-10T01:49:58.077Z,47.53
2023-04-10T01:52:28.166Z,45.63
2023-04-10T01:54:57.881Z,44.87
2023-04-10T01:57:27.552Z,48.63
2023-04-10T01:59:59.678Z,47.43
2023-04-10T02:02:33.722Z,53.67
2023-04-10T02:05:03.856Z,53.00
2023-04-10T02:07:38.858Z,51.90
2023-04-10T02:10:13.295Z,53.70
2023-04-10T02:12:47.210Z,55.63
2023-04-10T02:15:19.909Z,49.83
2023-04-10T02:17:49.441Z,59.57
2023-04-10T02:20:19.112Z,53.20
2023-04-10T02:22:48.811Z,59.30
2023-04-10T02:25:19.114Z,55.60
2023-04-10T02:27:48.581Z,54.33
2023-04-10T02:30:20.826Z,50.37
2023-04-10T02:32:50.355Z,57.30
2023-04-10T02:35:20.057Z,56.73
2023-04-10T02:37:50.871Z,60.33
2023-04-10T02:40:20.442Z,53.90
2023-04-10T02:42:49.963Z,54.50
2023-04-10T02:45:22.084Z,49.20
2023-04-10T02:47:51.981Z,54.70
2023-04-10T02:50:21.646Z,52.73
2023-04-10T02:52:51.377Z,57.83
2023-04-10T02:55:21.115Z,56.10
2023-04-10T02:57:50.568Z,55.07
2023-04-10T03:00:23.154Z,56.97
2023-04-10T03:02:53.845Z,56.10
2023-04-10T03:05:23.796Z,53.37
2023-04-10T03:07:54.375Z,54.83
2023-04-10T03:10:24.725Z,63.93
2023-04-10T03:12:54.236Z,50.00
2023-04-10T03:15:26.607Z,47.90
2023-04-10T03:17:56.790Z,45.97
2023-04-10T03:20:26.636Z,59.03
2023-04-10T03:22:56.163Z,50.70
2023-04-10T03:25:25.944Z,49.80
2023-04-10T03:27:55.655Z,58.00
2023-04-10T03:30:27.847Z,57.40
2023-04-10T03:32:57.396Z,70.37
2023-04-10T03:35:26.905Z,59.30
2023-04-10T03:37:56.424Z,56.47
2023-04-10T03:40:26.620Z,54.23
2023-04-10T03:42:56.113Z,54.57
2023-04-10T03:45:28.240Z,59.40
2023-04-10T03:47:57.808Z,55.20
2023-04-10T03:50:27.299Z,61.80
2023-04-10T03:52:56.792Z,63.73
2023-04-10T03:55:26.285Z,55.40
2023-04-10T03:57:56.133Z,52.03
2023-04-10T04:00:28.829Z,54.40
2023-04-10T04:02:58.937Z,52.83
2023-04-10T04:05:31.012Z,61.00
2023-04-10T04:08:00.652Z,53.90
2023-04-10T04:10:30.130Z,55.23
2023-04-10T04:12:59.629Z,48.03
2023-04-10T04:15:31.716Z,57.03
2023-04-10T04:18:01.253Z,45.50
2023-04-10T04:20:30.796Z,48.27
2023-04-10T04:23:00.477Z,54.37
2023-04-10T04:25:30.084Z,58.80
2023-04-10T04:27:59.606Z,48.87
2023-04-10T04:30:31.875Z,45.90
2023-04-10T04:33:01.426Z,61.07
2023-04-10T04:35:31.083Z,52.87
2023-04-10T04:38:00.644Z,52.33
2023-04-10T04:40:30.122Z,57.47
2023-04-10T04:42:59.609Z,44.27
2023-04-10T04:45:32.358Z,51.57
2023-04-10T04:48:01.954Z,53.90
2023-04-10T04:50:31.514Z,53.20
2023-04-10T04:53:00.992Z,55.43
2023-04-10T04:55:30.544Z,51.80
2023-04-10T04:58:00.111Z,55.13
2023-04-10T05:00:32.272Z,53.80
2023-04-10T05:03:02.194Z,50.97
2023-04-10T05:05:31.763Z,54.30
2023-04-10T05:08:01.286Z,49.83
2023-04-10T05:10:30.803Z,49.07
2023-04-10T05:13:00.458Z,47.73
2023-04-10T05:15:32.638Z,49.37
2023-04-10T05:18:02.356Z,54.60
2023-04-10T05:20:32.080Z,48.10
2023-04-10T05:23:01.691Z,52.77
2023-04-10T05:25:31.295Z,47.63
2023-04-10T05:28:00.857Z,49.83
2023-04-10T05:30:32.919Z,48.47
2023-04-10T05:33:02.488Z,45.63
2023-04-10T05:35:31.976Z,52.83
2023-04-10T05:38:01.839Z,43.33
2023-04-10T05:40:32.719Z,57.37
2023-04-10T05:43:02.256Z,65.30
2023-04-10T05:45:34.408Z,71.07
2023-04-10T05:48:03.879Z,63.83
2023-04-10T05:50:33.439Z,84.03
2023-04-10T05:53:02.925Z,56.43
2023-04-10T05:55:34.011Z,53.93
2023-04-10T05:58:03.489Z,43.60
2023-04-10T06:00:35.657Z,39.90
2023-04-10T06:03:05.316Z,42.67
2023-04-10T06:05:37.794Z,43.30
2023-04-10T06:08:07.661Z,39.53
2023-04-10T06:10:37.152Z,44.47
2023-04-10T06:13:07.752Z,46.23
2023-04-10T06:15:41.388Z,89.20
2023-04-10T06:18:11.063Z,162.93
2023-04-10T06:20:40.814Z,77.07
2023-04-10T06:23:10.466Z,48.60
2023-04-10T06:25:39.954Z,52.37
2023-04-10T06:28:09.493Z,37.67
2023-04-10T06:30:41.530Z,43.50
2023-04-10T06:33:11.053Z,48.83
2023-04-10T06:35:40.793Z,46.33
2023-04-10T06:38:10.532Z,40.77
2023-04-10T06:40:40.116Z,45.67
2023-04-10T06:43:09.585Z,37.43
2023-04-10T06:45:41.742Z,40.73
2023-04-10T06:48:11.260Z,43.53
2023-04-10T06:50:40.818Z,37.63
2023-04-10T06:53:10.402Z,37.00
2023-04-10T06:55:40.509Z,38.63
2023-04-10T06:58:10.132Z,42.57
2023-04-10T07:00:42.255Z,38.60
2023-04-10T07:03:11.789Z,39.70
2023-04-10T07:05:42.326Z,35.10
2023-04-10T07:08:11.994Z,34.53
2023-04-10T07:10:41.514Z,36.13
2023-04-10T07:13:11.017Z,41.17
2023-04-10T07:15:43.105Z,37.60
2023-04-10T07:18:12.595Z,33.67
2023-04-10T07:20:42.095Z,39.60
2023-04-10T07:23:11.926Z,36.47
2023-04-10T07:25:41.518Z,40.67
2023-04-10T07:28:11.355Z,34.53
2023-04-10T07:30:43.432Z,39.03
2023-04-10T07:33:13.130Z,32.03
2023-04-10T07:35:42.852Z,32.47
2023-04-10T07:38:13.595Z,34.97
2023-04-10T07:40:43.129Z,36.40
2023-04-10T07:43:12.658Z,33.90
2023-04-10T07:45:44.735Z,33.50
2023-04-10T07:48:14.383Z,37.63
2023-04-10T07:50:43.879Z,32.33
2023-04-10T07:53:13.367Z,28.23
2023-04-10T07:55:42.945Z,34.07
2023-04-10T07:58:12.766Z,33.63
2023-04-10T08:00:44.906Z,32.20
2023-04-10T08:03:15.018Z,32.30
2023-04-10T08:05:44.644Z,28.63
2023-04-10T08:08:14.272Z,30.27
2023-04-10T08:10:43.768Z,25.00
2023-04-10T08:13:13.315Z,27.60
2023-04-10T08:15:45.544Z,28.93
2023-04-10T08:18:15.073Z,34.00
2023-04-10T08:20:44.607Z,30.17
2023-04-10T08:23:20.367Z,27.57
2023-04-10T08:25:50.105Z,30.50
2023-04-10T08:28:21.124Z,26.60
2023-04-10T08:30:53.266Z,28.70
2023-04-10T08:33:22.844Z,29.67
2023-04-10T08:35:52.336Z,31.47
2023-04-10T08:38:23.922Z,28.90
2023-04-10T08:40:53.448Z,28.50
2023-04-10T08:43:22.969Z,31.70
2023-04-10T08:45:55.620Z,27.33
2023-04-10T08:48:29.480Z,27.03
2023-04-10T08:51:00.997Z,28.03
2023-04-10T08:53:34.034Z,26.47
2023-04-10T08:56:05.676Z,23.43
2023-04-10T08:58:35.892Z,32.40
2023-04-10T09:01:08.425Z,27.17
2023-04-10T09:03:38.144Z,29.37
2023-04-10T09:06:08.668Z,27.13
2023-04-10T09:08:38.292Z,25.40
2023-04-10T09:11:08.689Z,25.60
2023-04-10T09:13:40.427Z,27.13
2023-04-10T09:16:13.511Z,32.10
2023-04-10T09:18:48.378Z,40.57
2023-04-10T09:21:19.347Z,36.90
2023-04-10T09:23:50.643Z,32.80
2023-04-10T09:26:27.886Z,22.60
2023-04-10T09:29:02.229Z,24.40
2023-04-10T09:31:36.700Z,24.43
2023-04-10T09:34:14.812Z,19.63
2023-04-10T09:36:44.847Z,28.37
2023-04-10T09:39:15.781Z,23.37
2023-04-10T09:41:52.983Z,21.70
2023-04-10T09:44:31.936Z,30.80
2023-04-10T09:47:19.251Z,27.67
2023-04-10T09:49:50.152Z,20.37
2023-04-10T09:52:24.915Z,27.77
2023-04-10T09:54:54.808Z,24.50
2023-04-10T09:57:25.671Z,23.60
2023-04-10T09:59:56.097Z,20.43
2023-04-10T10:02:29.245Z,29.23
2023-04-10T10:05:00.879Z,18.87
2023-04-10T10:07:30.569Z,17.30
2023-04-10T10:10:01.708Z,18.23
2023-04-10T10:12:34.189Z,18.03
2023-04-10T10:15:06.208Z,20.70
2023-04-10T10:17:42.341Z,26.90
2023-04-10T10:20:13.444Z,15.60
2023-04-10T10:22:43.191Z,27.07
2023-04-10T10:25:13.521Z,21.27
2023-04-10T10:27:43.338Z,18.67
2023-04-10T10:30:25.690Z,16.20
2023-04-10T10:33:01.481Z,14.73
2023-04-10T10:35:31.074Z,15.33
2023-04-10T10:38:01.759Z,18.97
2023-04-10T10:40:34.749Z,15.00
2023-04-10T10:43:13.522Z,47.70
2023-04-10T10:45:45.883Z,19.10
2023-04-10T10:48:18.047Z,14.60
2023-04-10T10:50:57.228Z,16.60
2023-04-10T10:53:40.874Z,14.67
2023-04-10T10:56:37.897Z,12.80
2023-04-10T10:59:07.457Z,10.63
2023-04-10T11:01:36.980Z,10.60
2023-04-10T11:04:36.461Z,14.00
2023-04-10T11:07:08.576Z,10.87
2023-04-10T11:09:49.229Z,10.97
2023-04-10T11:12:19.151Z,15.90
2023-04-10T11:14:59.687Z,16.27
2023-04-10T11:17:52.151Z,19.70
2023-04-10T11:20:27.331Z,13.13
2023-04-10T11:23:20.581Z,13.20
2023-04-10T11:25:52.110Z,12.60
2023-04-10T11:28:36.936Z,13.70
2023-04-10T11:31:20.165Z,11.77
2023-04-10T11:33:50.520Z,14.40
2023-04-10T11:36:20.590Z,13.70
2023-04-10T11:38:59.793Z,12.90
2023-04-10T11:41:31.484Z,12.30
2023-04-10T11:44:01.847Z,14.07
2023-04-10T11:46:31.767Z,10.80
2023-04-10T11:49:02.632Z,12.60
2023-04-10T11:51:32.319Z,10.40
2023-04-10T11:54:11.953Z,9.77
2023-04-10T11:56:42.978Z,9.27
2023-04-10T11:59:14.600Z,9.77
2023-04-10T12:01:44.211Z,9.97
2023-04-10T12:04:18.438Z,8.27
2023-04-10T12:06:48.491Z,7.53
2023-04-10T12:09:22.269Z,9.17
2023-04-10T12:11:53.499Z,6.80
2023-04-10T12:14:23.820Z,8.93
2023-04-10T12:16:54.222Z,9.80
2023-04-10T12:19:24.198Z,9.80
2023-04-10T12:21:53.689Z,8.17
2023-04-10T12:24:47.492Z,11.10
2023-04-10T12:27:20.547Z,9.73
2023-04-10T12:29:50.818Z,10.17
2023-04-10T12:32:20.802Z,8.30
2023-04-10T12:34:53.515Z,7.50
2023-04-10T12:37:23.131Z,9.20
2023-04-10T12:39:55.549Z,8.00
2023-04-10T12:42:26.388Z,9.80
2023-04-10T12:44:57.017Z,9.50
2023-04-10T12:47:26.990Z,10.20
2023-04-10T12:50:06.315Z,8.47
2023-04-10T12:52:36.251Z,9.00
2023-04-10T12:55:19.918Z,13.33
2023-04-10T12:57:52.113Z,8.57
2023-04-10T13:00:22.779Z,12.33
2023-04-10T13:02:52.461Z,9.30
2023-04-10T13:05:22.295Z,8.43
2023-04-10T13:07:53.066Z,9.40
2023-04-10T13:10:25.429Z,9.40
2023-04-10T13:12:54.910Z,8.83
2023-04-10T13:15:24.599Z,13.03
2023-04-10T13:17:54.163Z,8.77
2023-04-10T13:20:24.533Z,10.40
2023-04-10T13:22:54.064Z,9.60
2023-04-10T13:25:27.790Z,9.80
2023-04-10T13:27:57.288Z,12.13
2023-04-10T13:30:26.834Z,11.20
2023-04-10T13:32:56.425Z,6.93
2023-04-10T13:35:25.935Z,7.70
2023-04-10T13:37:55.581Z,8.90
2023-04-10T13:40:27.757Z,10.20
2023-04-10T13:42:57.320Z,8.07
2023-04-10T13:45:26.891Z,10.60
2023-04-10T13:47:56.468Z,9.53
2023-04-10T13:50:26.029Z,7.30
2023-04-10T13:52:55.533Z,7.50
2023-04-10T13:55:27.785Z,8.30
2023-04-10T13:57:57.315Z,8.93
2023-04-10T14:00:26.923Z,7.50
2023-04-10T14:02:56.655Z,6.57
2023-04-10T14:05:26.298Z,7.10
2023-04-10T14:07:57.125Z,18.47
2023-04-10T14:10:29.314Z,7.13
2023-04-10T14:12:59.020Z,7.50
2023-04-10T14:15:28.561Z,8.83
2023-04-10T14:17:58.082Z,8.87
2023-04-10T14:20:27.679Z,8.40
2023-04-10T14:22:57.198Z,8.97
2023-04-10T14:25:29.307Z,10.00
2023-04-10T14:27:59.475Z,12.53
2023-04-10T14:30:31.102Z,13.23
2023-04-10T14:33:00.764Z,10.20
2023-04-10T14:35:30.482Z,12.83
2023-04-10T14:38:00.050Z,12.53
2023-04-10T14:40:32.150Z,10.37
2023-04-10T14:43:01.746Z,11.63
2023-04-10T14:45:32.796Z,12.53
2023-04-10T14:48:02.443Z,11.67
2023-04-10T14:50:34.257Z,10.37
2023-04-10T14:53:03.829Z,15.10
2023-04-10T14:55:36.029Z,12.70
2023-04-10T14:58:06.905Z,11.63
2023-04-10T15:00:36.381Z,17.17
2023-04-10T15:03:06.163Z,14.63
2023-04-10T15:05:35.943Z,11.60
2023-04-10T15:08:05.507Z,10.90
2023-04-10T15:10:37.560Z,13.33
2023-04-10T15:13:07.034Z,10.43
2023-04-10T15:15:36.553Z,8.77
2023-04-10T15:18:06.261Z,16.80
2023-04-10T15:20:35.833Z,93.03
2023-04-10T15:23:05.302Z,9.53
2023-04-10T15:25:37.945Z,8.77
2023-04-10T15:28:08.394Z,6.63
2023-04-10T15:30:37.917Z,8.47
2023-04-10T15:33:07.477Z,6.27
2023-04-10T15:35:37.217Z,6.73
2023-04-10T15:38:09.901Z,7.17
2023-04-10T15:40:42.292Z,6.70
2023-04-10T15:43:11.799Z,9.17
2023-04-10T15:45:41.713Z,7.10
2023-04-10T15:48:11.227Z,9.93
2023-04-10T15:50:40.858Z,7.87
2023-04-10T15:53:10.352Z,10.67
2023-04-10T15:55:44.453Z,8.40
2023-04-10T15:58:13.964Z,9.07
2023-04-10T16:00:43.528Z,9.30
2023-04-10T16:03:13.230Z,9.60
2023-04-10T16:05:42.836Z,14.43
2023-04-10T16:08:12.336Z,8.77
2023-04-10T16:10:44.449Z,9.13
2023-04-10T16:13:13.958Z,9.53
2023-04-10T16:15:43.595Z,8.30
2023-04-10T16:18:13.093Z,6.40
2023-04-10T16:20:43.742Z,7.97
2023-04-10T16:23:13.382Z,7.57
2023-04-10T16:25:45.512Z,7.40
2023-04-10T16:28:15.006Z,7.13
2023-04-10T16:30:44.487Z,7.43
2023-04-10T16:33:14.006Z,10.90
2023-04-10T16:35:43.571Z,8.43
2023-04-10T16:38:13.141Z,13.43
2023-04-10T16:40:45.217Z,8.90
2023-04-10T16:43:14.910Z,11.40
2023-04-10T16:45:44.386Z,35.67
2023-04-10T16:48:13.863Z,12.10
2023-04-10T16:50:43.376Z,23.17
2023-04-10T16:53:12.883Z,10.97
2023-04-10T16:55:45.026Z,11.83
2023-04-10T16:58:14.572Z,10.90
2023-04-10T17:00:44.079Z,9.27
2023-04-10T17:03:13.612Z,11.00
2023-04-10T17:05:43.160Z,12.87
2023-04-10T17:08:12.685Z,10.20
2023-04-10T17:10:44.762Z,13.00
2023-04-10T17:13:14.244Z,13.43
2023-04-10T17:15:43.749Z,12.07
2023-04-10T17:18:13.390Z,52.63
2023-04-10T17:20:42.956Z,13.33
2023-04-10T17:23:12.447Z,14.17
2023-04-10T17:25:45.014Z,14.73
2023-04-10T17:28:14.619Z,9.70
2023-04-10T17:30:45.751Z,13.50
2023-04-10T17:33:15.240Z,12.13
2023-04-10T17:35:44.967Z,14.83
2023-04-10T17:38:14.564Z,10.07
2023-04-10T17:40:46.654Z,10.43
2023-04-10T17:43:16.177Z,11.03
2023-04-10T17:45:45.851Z,7.50
2023-04-10T17:48:15.408Z,16.27
2023-04-10T17:50:44.918Z,8.73
2023-04-10T17:53:14.428Z,12.13
2023-04-10T17:55:48.051Z,34.33
2023-04-10T17:58:17.507Z,22.63
2023-04-10T18:00:46.982Z,17.50
2023-04-10T18:03:16.595Z,9.07
2023-04-10T18:05:46.157Z,10.07
2023-04-10T18:08:16.161Z,17.80
2023-04-10T18:10:48.709Z,11.00
2023-04-10T18:13:18.316Z,11.87
2023-04-10T18:15:47.789Z,14.20
2023-04-10T18:18:17.240Z,16.50
2023-04-10T18:20:46.758Z,17.20
2023-04-10T18:23:16.305Z,10.70
2023-04-10T18:25:54.764Z,12.77
2023-04-10T18:28:24.501Z,20.20
2023-04-10T18:30:56.867Z,16.90
2023-04-10T18:33:26.623Z,12.00
2023-04-10T18:35:57.420Z,12.90
2023-04-10T18:38:27.292Z,12.80
2023-04-10T18:41:00.460Z,11.33
2023-04-10T18:43:30.160Z,15.40
2023-04-10T18:46:00.108Z,11.87
2023-04-10T18:48:29.669Z,10.50
2023-04-10T18:50:59.228Z,15.47
2023-04-10T18:53:28.694Z,10.57
2023-04-10T18:56:00.759Z,20.77
2023-04-10T18:58:32.355Z,20.63
2023-04-10T19:01:01.955Z,18.00
2023-04-10T19:03:31.820Z,20.60
2023-04-10T19:06:01.506Z,18.57
2023-04-10T19:08:31.054Z,16.97
2023-04-10T19:11:06.614Z,11.00
2023-04-10T19:13:36.486Z,10.13
2023-04-10T19:16:06.978Z,15.80
2023-04-10T19:18:36.485Z,25.17
2023-04-10T19:21:06.069Z,16.50
2023-04-10T19:23:36.803Z,12.67
2023-04-10T19:26:09.904Z,16.70
2023-04-10T19:28:39.700Z,12.83
2023-04-10T19:31:09.670Z,18.03
2023-04-10T19:33:39.214Z,20.73
2023-04-10T19:36:09.817Z,13.20
2023-04-10T19:38:41.058Z,13.47
2023-04-10T19:41:18.746Z,13.37
2023-04-10T19:43:48.435Z,19.60
2023-04-10T19:46:21.415Z,31.67
2023-04-10T19:48:52.099Z,11.30
2023-04-10T19:51:21.643Z,23.70
2023-04-10T19:53:51.231Z,14.37
2023-04-10T19:56:23.347Z,38.03
2023-04-10T19:58:52.914Z,11.33
2023-04-10T20:01:24.403Z,22.43
2023-04-10T20:03:54.277Z,10.87
2023-04-10T20:06:24.294Z,23.63
2023-04-10T20:08:54.137Z,20.47
2023-04-10T20:11:30.705Z,47.37
2023-04-10T20:14:00.283Z,20.13
2023-04-10T20:16:29.859Z,37.80
2023-04-10T20:18:59.404Z,16.90
2023-04-10T20:21:29.394Z,26.00
2023-04-10T20:23:59.167Z,10.60
2023-04-10T20:26:31.311Z,61.50
2023-04-10T20:29:01.139Z,24.50
2023-04-10T20:31:31.653Z,24.97
2023-04-10T20:34:02.930Z,12.70
2023-04-10T20:36:32.504Z,32.97
2023-04-10T20:39:02.009Z,46.60
2023-04-10T20:41:34.109Z,19.33
2023-04-10T20:44:03.792Z,15.33
2023-04-10T20:46:33.329Z,16.90
2023-04-10T20:49:02.864Z,16.63
2023-04-10T20:51:33.789Z,18.43
2023-04-10T20:54:04.574Z,19.50
2023-04-10T20:56:43.461Z,13.97
2023-04-10T20:59:13.724Z,21.53
2023-04-10T21:01:43.304Z,12.10
2023-04-10T21:04:12.899Z,14.87
2023-04-10T21:06:42.369Z,18.53
2023-04-10T21:09:11.955Z,21.53
2023-04-10T21:11:44.190Z,48.20
2023-04-10T21:14:13.800Z,18.20
2023-04-10T21:16:45.953Z,27.57
2023-04-10T21:19:16.133Z,15.30
2023-04-10T21:21:45.694Z,13.93
2023-04-10T21:24:15.234Z,17.30
2023-04-10T21:26:47.279Z,14.53
2023-04-10T21:29:16.742Z,8.03
2023-04-10T21:31:46.772Z,14.97
2023-04-10T21:34:17.442Z,10.40
2023-04-10T21:36:46.909Z,11.53
2023-04-10T21:39:16.461Z,10.60
2023-04-10T21:41:48.608Z,12.87
2023-04-10T21:44:18.183Z,17.10
2023-04-10T21:46:47.689Z,9.10
2023-04-10T21:49:17.196Z,15.20
2023-04-10T21:51:46.700Z,10.53
2023-04-10T21:54:16.221Z,10.20
2023-04-10T21:56:48.356Z,10.53
2023-04-10T21:59:17.837Z,7.10
2023-04-10T22:01:47.471Z,7.17
2023-04-10T22:04:17.158Z,6.20
2023-04-10T22:06:46.719Z,14.10
2023-04-10T22:09:17.571Z,7.57
2023-04-10T22:11:49.635Z,6.90
2023-04-10T22:14:21.339Z,21.93
2023-04-10T22:16:51.062Z,13.57
2023-04-10T22:19:20.583Z,6.27
2023-04-10T22:21:50.183Z,7.53
2023-04-10T22:24:19.675Z,6.53
2023-04-10T22:26:51.734Z,8.13
2023-04-10T22:29:21.924Z,4.87
2023-04-10T22:31:51.447Z,7.20
2023-04-10T22:34:21.139Z,6.33
2023-04-10T22:36:51.975Z,9.60
2023-04-10T22:39:21.623Z,7.50
2023-04-10T22:41:53.766Z,7.80
2023-04-10T22:44:23.312Z,5.63
2023-04-10T22:46:52.800Z,13.63
2023-04-10T22:49:22.330Z,8.83
2023-04-10T22:51:51.862Z,20.23
2023-04-10T22:54:21.375Z,35.33
2023-04-10T22:56:53.473Z,11.53
2023-04-10T22:59:23.002Z,9.93
2023-04-10T23:01:52.554Z,17.27
2023-04-10T23:04:22.203Z,32.47
2023-04-10T23:06:51.747Z,16.00
2023-04-10T23:09:21.436Z,13.10
2023-04-10T23:11:53.752Z,35.57
2023-04-10T23:14:23.490Z,10.60
2023-04-10T23:16:53.063Z,9.03
2023-04-10T23:19:22.631Z,34.70
2023-04-10T23:21:53.673Z,17.67
2023-04-10T23:24:23.198Z,51.00
2023-04-10T23:26:55.281Z,9.43
2023-04-10T23:29:24.863Z,14.57
2023-04-10T23:31:54.372Z,17.90
2023-04-10T23:34:23.904Z,11.80
2023-04-10T23:36:53.429Z,32.10
2023-04-10T23:39:23.106Z,62.83
2023-04-10T23:41:56.025Z,67.67
2023-04-10T23:44:25.732Z,11.10
2023-04-10T23:46:55.332Z,10.00
2023-04-10T23:49:24.912Z,24.17
2023-04-10T23:51:54.376Z,9.87
2023-04-10T23:54:23.917Z,8.73
2023-04-10T23:56:56.013Z,15.20
2023-04-10T23:59:25.555Z,7.40
